sensor_id;sensor_type;location;lat;lon;timestamp;P1;durP1;ratioP1;P2;durP2;ratioP2
5277;SDS011;2662;51.194;6.614;2023-07-29T00:02:11;7.73;;;2.30;;
5277;SDS011;2662;51.194;6.614;2023-07-29T00:04:38;4.77;;;2.30;;
5277;SDS011;2662;51.194;6.614;2023-07-29T00:07:05;6.70;;;2.40;;
5277;SDS011;2662;51.194;6.614;2023-07-29T00:09:33;3.30;;;2.67;;
5277;SDS011;2662;51.194;6.614;2023-07-29T00:12:00;4.23;;;2.20;;
5277;SDS011;2662;51.194;6.614;2023-07-29T00:14:26;5.40;;;1.97;;
5277;SDS011;2662;51.194;6.614;2023-07-29T00:16:53;2.27;;;2.07;;
5277;SDS011;2662;51.194;6.614;2023-07-29T00:19:20;9.03;;;2.93;;
5277;SDS011;2662;51.194;6.614;2023-07-29T00:21:48;3.57;;;2.07;;
5277;SDS011;2662;51.194;6.614;2023-07-29T00:24:15;4.97;;;2.23;;
5277;SDS011;2662;51.194;6.614;2023-07-29T00:26:43;6.80;;;2.20;;
5277;SDS011;2662;51.194;6.614;2023-07-29T00:29:10;9.77;;;2.20;;
5277;SDS011;2662;51.194;6.614;2023-07-29T00:31:36;9.20;;;2.50;;
5277;SDS011;2662;51.194;6.614;2023-07-29T00:34:03;15.73;;;2.50;;
5277;SDS011;2662;51.194;6.614;2023-07-29T00:36:30;5.13;;;2.30;;
5277;SDS011;2662;51.194;6.614;2023-07-29T00:38:56;5.20;;;2.00;;
5277;SDS011;2662;51.194;6.614;2023-07-29T00:41:23;10.50;;;2.17;;
5277;SDS011;2662;51.194;6.614;2023-07-29T00:43:53;3.90;;;2.33;;
5277;SDS011;2662;51.194;6.614;2023-07-29T00:46:20;4.10;;;2.37;;
5277;SDS011;2662;51.194;6.614;2023-07-29T00:48:47;3.57;;;2.40;;
5277;SDS011;2662;51.194;6.614;2023-07-29T00:51:14;8.67;;;2.13;;
5277;SDS011;2662;51.194;6.614;2023-07-29T00:53:40;11.10;;;2.60;;
5277;SDS011;2662;51.194;6.614;2023-07-29T00:56:07;4.00;;;2.20;;
5277;SDS011;2662;51.194;6.614;2023-07-29T00:58:34;12.13;;;2.40;;
5277;SDS011;2662;51.194;6.614;2023-07-29T01:01:02;6.03;;;3.10;;
5277;SDS011;2662;51.194;6.614;2023-07-29T01:03:29;7.23;;;2.53;;
5277;SDS011;2662;51.194;6.614;2023-07-29T01:05:59;5.63;;;2.47;;
5277;SDS011;2662;51.194;6.614;2023-07-29T01:08:37;11.20;;;2.50;;
5277;SDS011;2662;51.194;6.614;2023-07-29T01:11:15;4.20;;;2.70;;
5277;SDS011;2662;51.194;6.614;2023-07-29T01:13:50;4.50;;;2.20;;
5277;SDS011;2662;51.194;6.614;2023-07-29T01:16:24;6.27;;;2.60;;
5277;SDS011;2662;51.194;6.614;2023-07-29T01:18:56;5.43;;;2.83;;
5277;SDS011;2662;51.194;6.614;2023-07-29T01:21:26;4.23;;;2.80;;
5277;SDS011;2662;51.194;6.614;2023-07-29T01:23:58;8.20;;;2.73;;
5277;SDS011;2662;51.194;6.614;2023-07-29T01:26:25;10.97;;;2.90;;
5277;SDS011;2662;51.194;6.614;2023-07-29T01:28:54;8.20;;;3.17;;
5277;SDS011;2662;51.194;6.614;2023-07-29T01:31:22;5.83;;;2.53;;
5277;SDS011;2662;51.194;6.614;2023-07-29T01:33:56;7.87;;;3.00;;
5277;SDS011;2662;51.194;6.614;2023-07-29T01:36:25;8.60;;;2.50;;
5277;SDS011;2662;51.194;6.614;2023-07-29T01:38:54;6.37;;;2.80;;
5277;SDS011;2662;51.194;6.614;2023-07-29T01:41:23;10.03;;;3.17;;
5277;SDS011;2662;51.194;6.614;2023-07-29T01:43:50;7.73;;;2.50;;
5277;SDS011;2662;51.194;6.614;2023-07-29T01:46:19;5.03;;;2.77;;
5277;SDS011;2662;51.194;6.614;2023-07-29T01:48:46;7.50;;;2.60;;
5277;SDS011;2662;51.194;6.614;2023-07-29T01:51:13;11.87;;;2.80;;
5277;SDS011;2662;51.194;6.614;2023-07-29T01:53:40;7.70;;;2.67;;
5277;SDS011;2662;51.194;6.614;2023-07-29T01:56:07;6.53;;;2.40;;
5277;SDS011;2662;51.194;6.614;2023-07-29T01:58:35;13.00;;;2.87;;
5277;SDS011;2662;51.194;6.614;2023-07-29T02:01:02;14.43;;;2.53;;
5277;SDS011;2662;51.194;6.614;2023-07-29T02:03:29;7.00;;;3.10;;
5277;SDS011;2662;51.194;6.614;2023-07-29T02:05:55;12.47;;;2.57;;
5277;SDS011;2662;51.194;6.614;2023-07-29T02:08:22;7.20;;;2.47;;
5277;SDS011;2662;51.194;6.614;2023-07-29T02:10:49;9.50;;;2.90;;
5277;SDS011;2662;51.194;6.614;2023-07-29T02:13:15;7.33;;;2.90;;
5277;SDS011;2662;51.194;6.614;2023-07-29T02:15:43;7.33;;;2.80;;
5277;SDS011;2662;51.194;6.614;2023-07-29T02:18:10;12.47;;;3.20;;
5277;SDS011;2662;51.194;6.614;2023-07-29T02:20:37;11.30;;;3.00;;
5277;SDS011;2662;51.194;6.614;2023-07-29T02:23:04;7.67;;;2.60;;
5277;SDS011;2662;51.194;6.614;2023-07-29T02:25:30;14.33;;;2.57;;
5277;SDS011;2662;51.194;6.614;2023-07-29T02:27:57;6.57;;;2.50;;
5277;SDS011;2662;51.194;6.614;2023-07-29T02:30:24;17.50;;;3.13;;
5277;SDS011;2662;51.194;6.614;2023-07-29T02:32:52;9.93;;;2.90;;
5277;SDS011;2662;51.194;6.614;2023-07-29T02:35:18;15.70;;;2.17;;
5277;SDS011;2662;51.194;6.614;2023-07-29T02:37:45;16.77;;;2.80;;
5277;SDS011;2662;51.194;6.614;2023-07-29T02:40:12;7.67;;;2.87;;
5277;SDS011;2662;51.194;6.614;2023-07-29T02:42:39;9.67;;;2.60;;
5277;SDS011;2662;51.194;6.614;2023-07-29T02:45:06;16.23;;;2.43;;
5277;SDS011;2662;51.194;6.614;2023-07-29T02:47:36;3.27;;;2.10;;
5277;SDS011;2662;51.194;6.614;2023-07-29T02:50:04;4.87;;;2.30;;
5277;SDS011;2662;51.194;6.614;2023-07-29T02:52:31;2.70;;;2.10;;
5277;SDS011;2662;51.194;6.614;2023-07-29T02:54:58;7.77;;;2.60;;
5277;SDS011;2662;51.194;6.614;2023-07-29T02:57:25;6.43;;;2.50;;
5277;SDS011;2662;51.194;6.614;2023-07-29T02:59:51;4.23;;;2.40;;
5277;SDS011;2662;51.194;6.614;2023-07-29T03:02:18;8.00;;;2.00;;
5277;SDS011;2662;51.194;6.614;2023-07-29T03:04:45;22.10;;;2.60;;
5277;SDS011;2662;51.194;6.614;2023-07-29T03:07:15;3.17;;;2.30;;
5277;SDS011;2662;51.194;6.614;2023-07-29T03:09:41;2.30;;;2.10;;
5277;SDS011;2662;51.194;6.614;2023-07-29T03:12:09;3.57;;;2.30;;
5277;SDS011;2662;51.194;6.614;2023-07-29T03:14:36;3.13;;;2.50;;
5277;SDS011;2662;51.194;6.614;2023-07-29T03:17:02;6.13;;;2.60;;
5277;SDS011;2662;51.194;6.614;2023-07-29T03:19:30;3.50;;;2.37;;
5277;SDS011;2662;51.194;6.614;2023-07-29T03:21:57;10.80;;;2.83;;
5277;SDS011;2662;51.194;6.614;2023-07-29T03:24:25;6.40;;;2.97;;
5277;SDS011;2662;51.194;6.614;2023-07-29T03:26:52;4.40;;;2.73;;
5277;SDS011;2662;51.194;6.614;2023-07-29T03:29:18;3.77;;;3.00;;
5277;SDS011;2662;51.194;6.614;2023-07-29T03:31:45;6.90;;;3.40;;
5277;SDS011;2662;51.194;6.614;2023-07-29T03:34:12;3.10;;;2.90;;
5277;SDS011;2662;51.194;6.614;2023-07-29T03:36:39;7.27;;;3.30;;
5277;SDS011;2662;51.194;6.614;2023-07-29T03:39:05;14.47;;;3.30;;
5277;SDS011;2662;51.194;6.614;2023-07-29T03:41:34;10.63;;;3.47;;
5277;SDS011;2662;51.194;6.614;2023-07-29T03:44:00;5.07;;;3.50;;
5277;SDS011;2662;51.194;6.614;2023-07-29T03:46:27;13.20;;;3.33;;
5277;SDS011;2662;51.194;6.614;2023-07-29T03:48:54;7.47;;;4.10;;
5277;SDS011;2662;51.194;6.614;2023-07-29T03:51:20;7.60;;;3.20;;
5277;SDS011;2662;51.194;6.614;2023-07-29T03:53:48;10.13;;;3.40;;
5277;SDS011;2662;51.194;6.614;2023-07-29T03:56:15;12.80;;;4.00;;
5277;SDS011;2662;51.194;6.614;2023-07-29T03:58:45;5.37;;;3.53;;
5277;SDS011;2662;51.194;6.614;2023-07-29T04:01:13;8.53;;;3.87;;
5277;SDS011;2662;51.194;6.614;2023-07-29T04:03:38;4.13;;;3.70;;
5277;SDS011;2662;51.194;6.614;2023-07-29T04:06:05;10.93;;;3.60;;
5277;SDS011;2662;51.194;6.614;2023-07-29T04:08:32;8.50;;;3.90;;
5277;SDS011;2662;51.194;6.614;2023-07-29T04:10:59;8.07;;;3.87;;
5277;SDS011;2662;51.194;6.614;2023-07-29T04:13:26;4.60;;;4.10;;
5277;SDS011;2662;51.194;6.614;2023-07-29T04:15:54;7.73;;;4.13;;
5277;SDS011;2662;51.194;6.614;2023-07-29T04:18:20;5.67;;;4.17;;
5277;SDS011;2662;51.194;6.614;2023-07-29T04:20:47;6.40;;;3.80;;
5277;SDS011;2662;51.194;6.614;2023-07-29T04:23:14;6.53;;;3.67;;
5277;SDS011;2662;51.194;6.614;2023-07-29T04:25:41;11.30;;;3.43;;
5277;SDS011;2662;51.194;6.614;2023-07-29T04:28:07;5.90;;;3.87;;
5277;SDS011;2662;51.194;6.614;2023-07-29T04:30:34;6.53;;;4.20;;
5277;SDS011;2662;51.194;6.614;2023-07-29T04:33:02;5.30;;;4.17;;
5277;SDS011;2662;51.194;6.614;2023-07-29T04:35:29;6.43;;;4.00;;
5277;SDS011;2662;51.194;6.614;2023-07-29T04:37:56;9.37;;;4.40;;
5277;SDS011;2662;51.194;6.614;2023-07-29T04:40:22;6.60;;;3.53;;
5277;SDS011;2662;51.194;6.614;2023-07-29T04:42:50;5.77;;;3.80;;
5277;SDS011;2662;51.194;6.614;2023-07-29T04:45:17;5.27;;;3.40;;
5277;SDS011;2662;51.194;6.614;2023-07-29T04:47:44;4.97;;;3.80;;
5277;SDS011;2662;51.194;6.614;2023-07-29T04:50:12;3.53;;;3.23;;
5277;SDS011;2662;51.194;6.614;2023-07-29T04:52:39;4.17;;;3.77;;
5277;SDS011;2662;51.194;6.614;2023-07-29T04:55:05;3.90;;;3.60;;
5277;SDS011;2662;51.194;6.614;2023-07-29T04:57:33;5.70;;;3.90;;
5277;SDS011;2662;51.194;6.614;2023-07-29T04:59:59;4.47;;;3.70;;
5277;SDS011;2662;51.194;6.614;2023-07-29T05:02:26;10.03;;;3.90;;
5277;SDS011;2662;51.194;6.614;2023-07-29T05:04:53;4.90;;;3.60;;
5277;SDS011;2662;51.194;6.614;2023-07-29T05:07:21;4.03;;;3.63;;
5277;SDS011;2662;51.194;6.614;2023-07-29T05:09:48;6.63;;;3.87;;
5277;SDS011;2662;51.194;6.614;2023-07-29T05:12:14;5.10;;;3.13;;
5277;SDS011;2662;51.194;6.614;2023-07-29T05:14:41;11.53;;;3.50;;
5277;SDS011;2662;51.194;6.614;2023-07-29T05:17:08;4.40;;;3.30;;
5277;SDS011;2662;51.194;6.614;2023-07-29T05:19:34;3.37;;;2.90;;
5277;SDS011;2662;51.194;6.614;2023-07-29T05:22:01;7.20;;;3.00;;
5277;SDS011;2662;51.194;6.614;2023-07-29T05:24:29;9.63;;;3.00;;
5277;SDS011;2662;51.194;6.614;2023-07-29T05:26:56;7.47;;;3.27;;
5277;SDS011;2662;51.194;6.614;2023-07-29T05:29:23;3.60;;;2.97;;
5277;SDS011;2662;51.194;6.614;2023-07-29T05:31:49;3.97;;;3.10;;
5277;SDS011;2662;51.194;6.614;2023-07-29T05:34:16;6.33;;;3.97;;
5277;SDS011;2662;51.194;6.614;2023-07-29T05:36:43;7.13;;;3.50;;
5277;SDS011;2662;51.194;6.614;2023-07-29T05:39:10;4.47;;;3.27;;
5277;SDS011;2662;51.194;6.614;2023-07-29T05:41:38;7.90;;;3.10;;
5277;SDS011;2662;51.194;6.614;2023-07-29T05:44:05;3.57;;;3.27;;
5277;SDS011;2662;51.194;6.614;2023-07-29T05:46:32;2.80;;;2.60;;
5277;SDS011;2662;51.194;6.614;2023-07-29T05:48:58;6.00;;;3.13;;
5277;SDS011;2662;51.194;6.614;2023-07-29T05:51:25;7.10;;;3.57;;
5277;SDS011;2662;51.194;6.614;2023-07-29T05:53:52;10.77;;;2.93;;
5277;SDS011;2662;51.194;6.614;2023-07-29T05:56:18;5.70;;;2.73;;
5277;SDS011;2662;51.194;6.614;2023-07-29T05:58:46;2.90;;;2.70;;
5277;SDS011;2662;51.194;6.614;2023-07-29T06:01:13;3.30;;;2.40;;
5277;SDS011;2662;51.194;6.614;2023-07-29T06:03:40;4.60;;;2.23;;
5277;SDS011;2662;51.194;6.614;2023-07-29T06:06:06;2.60;;;2.13;;
5277;SDS011;2662;51.194;6.614;2023-07-29T06:08:33;2.07;;;1.90;;
5277;SDS011;2662;51.194;6.614;2023-07-29T06:11:00;2.23;;;2.13;;
5277;SDS011;2662;51.194;6.614;2023-07-29T06:13:27;2.73;;;1.80;;
5277;SDS011;2662;51.194;6.614;2023-07-29T06:15:55;6.00;;;2.00;;
5277;SDS011;2662;51.194;6.614;2023-07-29T06:18:22;2.87;;;1.40;;
5277;SDS011;2662;51.194;6.614;2023-07-29T06:20:48;3.83;;;1.80;;
5277;SDS011;2662;51.194;6.614;2023-07-29T06:23:15;3.20;;;1.90;;
5277;SDS011;2662;51.194;6.614;2023-07-29T06:25:42;2.07;;;1.60;;
5277;SDS011;2662;51.194;6.614;2023-07-29T06:28:09;2.80;;;1.80;;
5277;SDS011;2662;51.194;6.614;2023-07-29T06:30:36;2.17;;;1.67;;
5277;SDS011;2662;51.194;6.614;2023-07-29T06:33:04;2.20;;;1.70;;
5277;SDS011;2662;51.194;6.614;2023-07-29T06:35:30;12.87;;;1.80;;
5277;SDS011;2662;51.194;6.614;2023-07-29T06:37:57;1.50;;;1.40;;
5277;SDS011;2662;51.194;6.614;2023-07-29T06:40:24;2.73;;;1.73;;
5277;SDS011;2662;51.194;6.614;2023-07-29T06:42:51;1.60;;;1.50;;
5277;SDS011;2662;51.194;6.614;2023-07-29T06:45:18;2.40;;;1.47;;
5277;SDS011;2662;51.194;6.614;2023-07-29T06:47:44;2.00;;;1.70;;
5277;SDS011;2662;51.194;6.614;2023-07-29T06:50:12;2.27;;;1.90;;
5277;SDS011;2662;51.194;6.614;2023-07-29T06:52:39;5.63;;;1.80;;
5277;SDS011;2662;51.194;6.614;2023-07-29T06:55:06;1.83;;;1.73;;
5277;SDS011;2662;51.194;6.614;2023-07-29T06:57:33;5.13;;;1.67;;
5277;SDS011;2662;51.194;6.614;2023-07-29T07:00:00;2.83;;;1.60;;
5277;SDS011;2662;51.194;6.614;2023-07-29T07:02:27;1.80;;;1.70;;
5277;SDS011;2662;51.194;6.614;2023-07-29T07:04:55;1.67;;;1.57;;
5277;SDS011;2662;51.194;6.614;2023-07-29T07:07:23;5.17;;;1.37;;
5277;SDS011;2662;51.194;6.614;2023-07-29T07:09:50;1.93;;;1.83;;
5277;SDS011;2662;51.194;6.614;2023-07-29T07:12:16;5.10;;;1.80;;
5277;SDS011;2662;51.194;6.614;2023-07-29T07:14:43;4.57;;;1.80;;
5277;SDS011;2662;51.194;6.614;2023-07-29T07:17:10;1.47;;;1.37;;
5277;SDS011;2662;51.194;6.614;2023-07-29T07:19:37;8.10;;;1.80;;
5277;SDS011;2662;51.194;6.614;2023-07-29T07:22:03;1.50;;;1.40;;
5277;SDS011;2662;51.194;6.614;2023-07-29T07:24:31;1.37;;;1.27;;
5277;SDS011;2662;51.194;6.614;2023-07-29T07:26:58;5.83;;;1.50;;
5277;SDS011;2662;51.194;6.614;2023-07-29T07:29:25;3.00;;;1.40;;
5277;SDS011;2662;51.194;6.614;2023-07-29T07:31:52;3.33;;;1.20;;
5277;SDS011;2662;51.194;6.614;2023-07-29T07:34:20;1.47;;;1.10;;
5277;SDS011;2662;51.194;6.614;2023-07-29T07:36:47;2.30;;;1.00;;
5277;SDS011;2662;51.194;6.614;2023-07-29T07:39:14;1.50;;;1.20;;
5277;SDS011;2662;51.194;6.614;2023-07-29T07:41:42;2.53;;;1.07;;
5277;SDS011;2662;51.194;6.614;2023-07-29T07:44:09;1.57;;;1.30;;
5277;SDS011;2662;51.194;6.614;2023-07-29T07:46:40;1.17;;;1.10;;
5277;SDS011;2662;51.194;6.614;2023-07-29T07:49:07;7.50;;;1.30;;
5277;SDS011;2662;51.194;6.614;2023-07-29T07:51:33;1.10;;;0.80;;
5277;SDS011;2662;51.194;6.614;2023-07-29T07:54:00;0.87;;;0.87;;
5277;SDS011;2662;51.194;6.614;2023-07-29T07:56:27;1.60;;;0.97;;
5277;SDS011;2662;51.194;6.614;2023-07-29T07:58:55;5.50;;;1.00;;
5277;SDS011;2662;51.194;6.614;2023-07-29T08:01:21;1.10;;;1.10;;
5277;SDS011;2662;51.194;6.614;2023-07-29T08:03:48;1.30;;;0.90;;
5277;SDS011;2662;51.194;6.614;2023-07-29T08:06:15;1.57;;;0.90;;
5277;SDS011;2662;51.194;6.614;2023-07-29T08:08:41;1.10;;;0.90;;
5277;SDS011;2662;51.194;6.614;2023-07-29T08:11:08;1.30;;;0.90;;
5277;SDS011;2662;51.194;6.614;2023-07-29T08:13:35;0.67;;;0.67;;
5277;SDS011;2662;51.194;6.614;2023-07-29T08:16:03;0.73;;;0.73;;
5277;SDS011;2662;51.194;6.614;2023-07-29T08:18:30;0.80;;;0.80;;
5277;SDS011;2662;51.194;6.614;2023-07-29T08:20:57;0.70;;;0.70;;
5277;SDS011;2662;51.194;6.614;2023-07-29T08:23:27;0.70;;;0.70;;
5277;SDS011;2662;51.194;6.614;2023-07-29T08:25:55;0.80;;;0.80;;
5277;SDS011;2662;51.194;6.614;2023-07-29T08:28:26;0.97;;;0.97;;
5277;SDS011;2662;51.194;6.614;2023-07-29T08:30:54;0.90;;;0.90;;
5277;SDS011;2662;51.194;6.614;2023-07-29T08:33:30;1.47;;;0.90;;
5277;SDS011;2662;51.194;6.614;2023-07-29T08:35:58;2.60;;;0.80;;
5277;SDS011;2662;51.194;6.614;2023-07-29T08:38:25;1.13;;;0.80;;
5277;SDS011;2662;51.194;6.614;2023-07-29T08:40:52;1.97;;;0.70;;
5277;SDS011;2662;51.194;6.614;2023-07-29T08:43:25;0.70;;;0.70;;
5277;SDS011;2662;51.194;6.614;2023-07-29T08:45:56;0.60;;;0.60;;
5277;SDS011;2662;51.194;6.614;2023-07-29T08:48:29;0.70;;;0.70;;
5277;SDS011;2662;51.194;6.614;2023-07-29T08:50:59;0.93;;;0.83;;
5277;SDS011;2662;51.194;6.614;2023-07-29T08:53:27;0.87;;;0.87;;
5277;SDS011;2662;51.194;6.614;2023-07-29T08:55:54;0.70;;;0.70;;
5277;SDS011;2662;51.194;6.614;2023-07-29T08:58:21;1.33;;;1.00;;
5277;SDS011;2662;51.194;6.614;2023-07-29T09:00:49;1.57;;;0.70;;
5277;SDS011;2662;51.194;6.614;2023-07-29T09:03:17;2.10;;;1.00;;
5277;SDS011;2662;51.194;6.614;2023-07-29T09:05:45;1.20;;;0.80;;
5277;SDS011;2662;51.194;6.614;2023-07-29T09:08:12;1.47;;;0.90;;
5277;SDS011;2662;51.194;6.614;2023-07-29T09:10:39;2.60;;;1.17;;
5277;SDS011;2662;51.194;6.614;2023-07-29T09:13:06;0.90;;;0.90;;
5277;SDS011;2662;51.194;6.614;2023-07-29T09:15:32;0.90;;;0.90;;
5277;SDS011;2662;51.194;6.614;2023-07-29T09:18:00;0.80;;;0.77;;
5277;SDS011;2662;51.194;6.614;2023-07-29T09:20:35;2.60;;;0.80;;
5277;SDS011;2662;51.194;6.614;2023-07-29T09:23:06;7.93;;;1.13;;
5277;SDS011;2662;51.194;6.614;2023-07-29T09:25:34;3.43;;;1.20;;
5277;SDS011;2662;51.194;6.614;2023-07-29T09:28:01;2.43;;;1.03;;
5277;SDS011;2662;51.194;6.614;2023-07-29T09:30:33;1.77;;;1.10;;
5277;SDS011;2662;51.194;6.614;2023-07-29T09:33:00;0.87;;;0.87;;
5277;SDS011;2662;51.194;6.614;2023-07-29T09:35:27;1.63;;;1.20;;
5277;SDS011;2662;51.194;6.614;2023-07-29T09:37:56;1.20;;;0.80;;
5277;SDS011;2662;51.194;6.614;2023-07-29T09:40:24;1.10;;;1.00;;
5277;SDS011;2662;51.194;6.614;2023-07-29T09:42:52;1.53;;;1.10;;
5277;SDS011;2662;51.194;6.614;2023-07-29T09:45:20;1.00;;;0.87;;
5277;SDS011;2662;51.194;6.614;2023-07-29T09:47:48;1.33;;;1.10;;
5277;SDS011;2662;51.194;6.614;2023-07-29T09:50:16;0.80;;;0.80;;
5277;SDS011;2662;51.194;6.614;2023-07-29T09:52:43;1.80;;;1.07;;
5277;SDS011;2662;51.194;6.614;2023-07-29T09:55:11;3.93;;;0.80;;
5277;SDS011;2662;51.194;6.614;2023-07-29T09:57:40;1.63;;;1.10;;
5277;SDS011;2662;51.194;6.614;2023-07-29T10:00:09;1.23;;;1.10;;
5277;SDS011;2662;51.194;6.614;2023-07-29T10:02:38;1.10;;;1.00;;
5277;SDS011;2662;51.194;6.614;2023-07-29T10:05:06;1.80;;;0.70;;
5277;SDS011;2662;51.194;6.614;2023-07-29T10:07:34;1.67;;;1.20;;
5277;SDS011;2662;51.194;6.614;2023-07-29T10:10:02;1.03;;;0.93;;
5277;SDS011;2662;51.194;6.614;2023-07-29T10:12:30;1.30;;;0.90;;
5277;SDS011;2662;51.194;6.614;2023-07-29T10:15:00;1.40;;;1.30;;
5277;SDS011;2662;51.194;6.614;2023-07-29T10:17:28;1.27;;;1.00;;
5277;SDS011;2662;51.194;6.614;2023-07-29T10:19:56;2.50;;;0.90;;
5277;SDS011;2662;51.194;6.614;2023-07-29T10:22:24;1.97;;;1.47;;
5277;SDS011;2662;51.194;6.614;2023-07-29T10:24:54;1.33;;;1.00;;
5277;SDS011;2662;51.194;6.614;2023-07-29T10:27:22;1.10;;;1.00;;
5277;SDS011;2662;51.194;6.614;2023-07-29T10:29:51;11.10;;;1.20;;
5277;SDS011;2662;51.194;6.614;2023-07-29T10:32:22;1.43;;;1.00;;
5277;SDS011;2662;51.194;6.614;2023-07-29T10:34:51;1.47;;;0.97;;
5277;SDS011;2662;51.194;6.614;2023-07-29T10:37:19;5.70;;;1.00;;
5277;SDS011;2662;51.194;6.614;2023-07-29T10:39:53;3.67;;;0.90;;
5277;SDS011;2662;51.194;6.614;2023-07-29T10:42:20;1.10;;;0.97;;
5277;SDS011;2662;51.194;6.614;2023-07-29T10:44:48;1.30;;;0.77;;
5277;SDS011;2662;51.194;6.614;2023-07-29T10:47:17;0.90;;;0.90;;
5277;SDS011;2662;51.194;6.614;2023-07-29T10:49:46;1.20;;;0.70;;
5277;SDS011;2662;51.194;6.614;2023-07-29T10:52:15;1.00;;;0.90;;
5277;SDS011;2662;51.194;6.614;2023-07-29T10:54:43;1.07;;;1.00;;
5277;SDS011;2662;51.194;6.614;2023-07-29T10:57:13;1.17;;;1.07;;
5277;SDS011;2662;51.194;6.614;2023-07-29T10:59:40;1.20;;;1.10;;
5277;SDS011;2662;51.194;6.614;2023-07-29T11:02:18;1.23;;;0.90;;
5277;SDS011;2662;51.194;6.614;2023-07-29T11:04:47;2.03;;;1.10;;
5277;SDS011;2662;51.194;6.614;2023-07-29T11:07:19;5.40;;;1.27;;
5277;SDS011;2662;51.194;6.614;2023-07-29T11:09:57;1.00;;;1.00;;
5277;SDS011;2662;51.194;6.614;2023-07-29T11:12:34;1.30;;;1.00;;
5277;SDS011;2662;51.194;6.614;2023-07-29T11:15:02;2.60;;;1.30;;
5277;SDS011;2662;51.194;6.614;2023-07-29T11:17:31;1.20;;;1.10;;
5277;SDS011;2662;51.194;6.614;2023-07-29T11:20:01;1.10;;;1.00;;
5277;SDS011;2662;51.194;6.614;2023-07-29T11:22:28;8.73;;;1.10;;
5277;SDS011;2662;51.194;6.614;2023-07-29T11:24:55;1.63;;;1.30;;
5277;SDS011;2662;51.194;6.614;2023-07-29T11:27:22;1.13;;;1.03;;
5277;SDS011;2662;51.194;6.614;2023-07-29T11:29:49;1.83;;;1.00;;
5277;SDS011;2662;51.194;6.614;2023-07-29T11:32:16;5.20;;;1.00;;
5277;SDS011;2662;51.194;6.614;2023-07-29T11:34:43;1.20;;;1.10;;
5277;SDS011;2662;51.194;6.614;2023-07-29T11:37:11;1.50;;;1.40;;
5277;SDS011;2662;51.194;6.614;2023-07-29T11:39:39;1.33;;;1.13;;
5277;SDS011;2662;51.194;6.614;2023-07-29T11:42:06;1.00;;;1.00;;
5277;SDS011;2662;51.194;6.614;2023-07-29T11:44:33;1.30;;;1.20;;
5277;SDS011;2662;51.194;6.614;2023-07-29T11:46:59;2.60;;;1.00;;
5277;SDS011;2662;51.194;6.614;2023-07-29T11:49:26;1.93;;;1.40;;
5277;SDS011;2662;51.194;6.614;2023-07-29T11:51:53;2.20;;;1.13;;
5277;SDS011;2662;51.194;6.614;2023-07-29T11:54:21;1.10;;;1.00;;
5277;SDS011;2662;51.194;6.614;2023-07-29T11:56:48;1.43;;;1.33;;
5277;SDS011;2662;51.194;6.614;2023-07-29T11:59:16;1.77;;;1.30;;
5277;SDS011;2662;51.194;6.614;2023-07-29T12:01:43;1.20;;;1.10;;
5277;SDS011;2662;51.194;6.614;2023-07-29T12:04:11;2.60;;;1.03;;
5277;SDS011;2662;51.194;6.614;2023-07-29T12:06:38;1.03;;;1.00;;
5277;SDS011;2662;51.194;6.614;2023-07-29T12:09:06;2.80;;;1.20;;
5277;SDS011;2662;51.194;6.614;2023-07-29T12:11:35;1.97;;;1.33;;
5277;SDS011;2662;51.194;6.614;2023-07-29T12:14:02;1.93;;;1.40;;
5277;SDS011;2662;51.194;6.614;2023-07-29T12:16:29;2.30;;;1.20;;
5277;SDS011;2662;51.194;6.614;2023-07-29T12:18:59;1.33;;;1.13;;
5277;SDS011;2662;51.194;6.614;2023-07-29T12:21:26;1.37;;;1.10;;
5277;SDS011;2662;51.194;6.614;2023-07-29T12:23:55;1.30;;;1.20;;
5277;SDS011;2662;51.194;6.614;2023-07-29T12:26:26;1.30;;;1.10;;
5277;SDS011;2662;51.194;6.614;2023-07-29T12:28:55;1.17;;;1.07;;
5277;SDS011;2662;51.194;6.614;2023-07-29T12:31:28;1.30;;;1.30;;
5277;SDS011;2662;51.194;6.614;2023-07-29T12:33:58;2.10;;;1.40;;
5277;SDS011;2662;51.194;6.614;2023-07-29T12:36:27;4.53;;;1.10;;
5277;SDS011;2662;51.194;6.614;2023-07-29T12:39:06;3.77;;;1.20;;
5277;SDS011;2662;51.194;6.614;2023-07-29T12:41:41;2.00;;;1.13;;
5277;SDS011;2662;51.194;6.614;2023-07-29T12:44:09;1.50;;;1.40;;
5277;SDS011;2662;51.194;6.614;2023-07-29T12:46:36;1.47;;;1.37;;
5277;SDS011;2662;51.194;6.614;2023-07-29T12:49:02;1.27;;;1.17;;
5277;SDS011;2662;51.194;6.614;2023-07-29T12:51:29;1.63;;;1.20;;
5277;SDS011;2662;51.194;6.614;2023-07-29T12:53:56;5.47;;;1.20;;
5277;SDS011;2662;51.194;6.614;2023-07-29T12:56:23;1.30;;;1.23;;
5277;SDS011;2662;51.194;6.614;2023-07-29T12:58:49;1.93;;;1.37;;
5277;SDS011;2662;51.194;6.614;2023-07-29T13:01:17;1.37;;;1.20;;
5277;SDS011;2662;51.194;6.614;2023-07-29T13:03:44;1.20;;;1.10;;
5277;SDS011;2662;51.194;6.614;2023-07-29T13:06:11;1.87;;;1.23;;
5277;SDS011;2662;51.194;6.614;2023-07-29T13:08:38;1.30;;;1.20;;
5277;SDS011;2662;51.194;6.614;2023-07-29T13:11:05;2.90;;;1.10;;
5277;SDS011;2662;51.194;6.614;2023-07-29T13:13:31;1.27;;;1.27;;
5277;SDS011;2662;51.194;6.614;2023-07-29T13:15:58;1.40;;;1.20;;
5277;SDS011;2662;51.194;6.614;2023-07-29T13:18:27;1.23;;;1.10;;
5277;SDS011;2662;51.194;6.614;2023-07-29T13:20:54;1.17;;;1.17;;
5277;SDS011;2662;51.194;6.614;2023-07-29T13:23:21;4.67;;;1.60;;
5277;SDS011;2662;51.194;6.614;2023-07-29T13:25:48;7.03;;;1.30;;
5277;SDS011;2662;51.194;6.614;2023-07-29T13:28:15;3.67;;;1.40;;
5277;SDS011;2662;51.194;6.614;2023-07-29T13:30:42;1.70;;;1.60;;
5277;SDS011;2662;51.194;6.614;2023-07-29T13:33:09;6.03;;;1.40;;
5277;SDS011;2662;51.194;6.614;2023-07-29T13:35:37;8.80;;;2.17;;
5277;SDS011;2662;51.194;6.614;2023-07-29T13:38:03;5.80;;;1.70;;
5277;SDS011;2662;51.194;6.614;2023-07-29T13:40:31;2.43;;;1.73;;
5277;SDS011;2662;51.194;6.614;2023-07-29T13:42:58;1.60;;;1.50;;
5277;SDS011;2662;51.194;6.614;2023-07-29T13:45:25;4.40;;;1.53;;
5277;SDS011;2662;51.194;6.614;2023-07-29T13:47:51;3.50;;;1.60;;
5277;SDS011;2662;51.194;6.614;2023-07-29T13:50:18;2.17;;;1.50;;
5277;SDS011;2662;51.194;6.614;2023-07-29T13:52:46;2.53;;;1.50;;
5277;SDS011;2662;51.194;6.614;2023-07-29T13:55:13;1.90;;;1.70;;
5277;SDS011;2662;51.194;6.614;2023-07-29T13:57:39;5.07;;;1.80;;
5277;SDS011;2662;51.194;6.614;2023-07-29T14:00:06;1.80;;;1.70;;
5277;SDS011;2662;51.194;6.614;2023-07-29T14:02:34;1.40;;;1.30;;
5277;SDS011;2662;51.194;6.614;2023-07-29T14:05:00;1.40;;;1.30;;
5277;SDS011;2662;51.194;6.614;2023-07-29T14:07:27;2.30;;;1.53;;
5277;SDS011;2662;51.194;6.614;2023-07-29T14:09:55;1.87;;;1.77;;
5277;SDS011;2662;51.194;6.614;2023-07-29T14:12:22;6.07;;;1.40;;
5277;SDS011;2662;51.194;6.614;2023-07-29T14:14:49;1.70;;;1.60;;
5277;SDS011;2662;51.194;6.614;2023-07-29T14:17:15;2.10;;;1.50;;
5277;SDS011;2662;51.194;6.614;2023-07-29T14:19:42;1.60;;;1.50;;
5277;SDS011;2662;51.194;6.614;2023-07-29T14:22:09;2.10;;;1.40;;
5277;SDS011;2662;51.194;6.614;2023-07-29T14:24:36;1.20;;;1.20;;
5277;SDS011;2662;51.194;6.614;2023-07-29T14:27:04;1.63;;;1.53;;
5277;SDS011;2662;51.194;6.614;2023-07-29T14:29:31;1.63;;;1.53;;
5277;SDS011;2662;51.194;6.614;2023-07-29T14:31:58;1.20;;;1.17;;
5277;SDS011;2662;51.194;6.614;2023-07-29T14:34:24;1.57;;;1.00;;
5277;SDS011;2662;51.194;6.614;2023-07-29T14:36:51;4.20;;;1.40;;
5277;SDS011;2662;51.194;6.614;2023-07-29T14:39:18;1.20;;;1.10;;
5277;SDS011;2662;51.194;6.614;2023-07-29T14:41:45;1.00;;;0.90;;
5277;SDS011;2662;51.194;6.614;2023-07-29T14:44:13;2.03;;;1.10;;
5277;SDS011;2662;51.194;6.614;2023-07-29T14:46:39;1.33;;;1.10;;
5277;SDS011;2662;51.194;6.614;2023-07-29T14:49:06;1.47;;;1.23;;
5277;SDS011;2662;51.194;6.614;2023-07-29T14:51:33;1.40;;;1.30;;
5277;SDS011;2662;51.194;6.614;2023-07-29T14:54:00;1.80;;;1.43;;
5277;SDS011;2662;51.194;6.614;2023-07-29T14:56:27;1.20;;;1.10;;
5277;SDS011;2662;51.194;6.614;2023-07-29T14:58:54;1.73;;;0.97;;
5277;SDS011;2662;51.194;6.614;2023-07-29T15:01:22;1.33;;;1.23;;
5277;SDS011;2662;51.194;6.614;2023-07-29T15:03:48;1.53;;;1.20;;
5277;SDS011;2662;51.194;6.614;2023-07-29T15:06:15;1.27;;;1.17;;
5277;SDS011;2662;51.194;6.614;2023-07-29T15:08:42;1.47;;;1.20;;
5277;SDS011;2662;51.194;6.614;2023-07-29T15:11:08;2.30;;;1.07;;
5277;SDS011;2662;51.194;6.614;2023-07-29T15:13:35;1.90;;;0.90;;
5277;SDS011;2662;51.194;6.614;2023-07-29T15:16:02;1.10;;;1.00;;
5277;SDS011;2662;51.194;6.614;2023-07-29T15:18:30;0.87;;;0.87;;